Time;durP1;ratioP1;P1;durP2;ratioP2;P2;SDS_P1;SDS_P2;PMS_P1;PMS_P2;Temp;Humidity;BMP_temperature;BMP_pressure;BME280_temperature;BME280_humidity;BME280_pressure;Samples;Min_cycle;Max_cycle;Signal;HPM_P1;HPM_P2
2023/03/27 00:00:49;;;;;;;44.47;20.00;;;;;;;9.55;59.80;93825.41;5062961;28;20226;-78
2023/03/27 00:03:16;;;;;;;43.47;17.30;;;;;;;9.29;60.22;93816.16;5057533;28;20632;-78
2023/03/27 00:05:43;;;;;;;33.13;14.37;;;;;;;9.40;59.31;93832.94;5069993;28;20194;-78
2023/03/27 00:08:08;;;;;;;33.60;15.33;;;;;;;9.31;59.95;93827.25;5063705;28;20660;-78
2023/03/27 00:10:35;;;;;;;32.27;14.97;;;;;;;9.34;60.00;93826.75;5063322;28;20230;-78
2023/03/27 00:13:02;;;;;;;44.58;18.10;;;;;;;9.25;59.61;93825.53;5064022;28;20410;-79
2023/03/27 00:15:29;;;;;;;32.83;16.17;;;;;;;9.27;59.51;93825.28;5072059;28;20181;-78
2023/03/27 00:17:57;;;;;;;33.17;14.70;;;;;;;9.31;59.58;93815.94;5071705;28;20682;-78
2023/03/27 00:20:25;;;;;;;37.67;16.63;;;;;;;9.34;59.42;93826.75;5066501;28;20167;-78
2023/03/27 00:22:55;;;;;;;35.07;16.20;;;;;;;9.34;59.77;93829.38;5068199;28;20184;-78
2023/03/27 00:25:27;;;;;;;32.95;15.57;;;;;;;9.23;60.01;93785.56;5055900;28;20077;-78
2023/03/27 00:27:55;;;;;;;36.90;15.73;;;;;;;9.29;60.21;93813.53;5071495;28;20474;-77
2023/03/27 00:30:22;;;;;;;35.70;17.67;;;;;;;8.97;61.14;93828.00;5066052;28;20527;-77
2023/03/27 00:32:47;;;;;;;37.03;17.30;;;;;;;8.57;62.03;93833.03;5066439;28;20467;-77
2023/03/27 00:35:14;;;;;;;28.63;15.00;;;;;;;8.76;62.65;93781.31;5060609;28;20656;-78
2023/03/27 00:37:40;;;;;;;36.88;16.33;;;;;;;8.62;62.13;93799.06;5064842;28;20421;-77
2023/03/27 00:40:15;;;;;;;29.33;13.98;;;;;;;8.12;63.39;93809.81;5051982;28;20911;-77
2023/03/27 00:42:46;;;;;;;32.05;14.00;;;;;;;8.31;64.29;93794.88;5051376;28;20443;-77
2023/03/27 00:45:32;;;;;;;28.35;13.77;;;;;;;8.46;62.65;93807.59;5066346;28;20472;-78
2023/03/27 00:48:05;;;;;;;24.50;11.87;;;;;;;8.65;62.26;93793.38;5059983;28;20775;-77
2023/03/27 00:50:35;;;;;;;26.60;12.65;;;;;;;8.69;62.04;93797.94;5058829;28;20435;-78
2023/03/27 00:53:14;;;;;;;23.73;12.13;;;;;;;8.69;61.48;93760.44;5051537;28;20182;-77
2023/03/27 00:55:43;;;;;;;25.23;11.93;;;;;;;8.94;61.59;93789.88;5051654;28;20536;-78
2023/03/27 00:58:18;;;;;;;26.42;13.95;;;;;;;8.56;63.00;93779.78;5065537;28;20454;-78
2023/03/27 01:00:45;;;;;;;23.23;12.00;;;;;;;8.74;62.49;93775.47;5063333;28;20221;-77
2023/03/27 01:03:11;;;;;;;25.42;12.60;;;;;;;8.79;60.83;93770.38;5070646;28;20421;-78
2023/03/27 01:05:36;;;;;;;26.07;12.07;;;;;;;8.64;60.41;93741.94;5071036;28;20189;-78
2023/03/27 01:08:02;;;;;;;21.53;12.13;;;;;;;8.87;61.09;93777.91;5065817;28;20261;-78
2023/03/27 01:10:53;;;;;;;27.92;15.02;;;;;;;8.83;61.89;93772.28;5049944;28;20479;-78
2023/03/27 01:13:34;;;;;;;24.87;11.77;;;;;;;8.94;60.91;93758.38;5063420;28;20193;-78
2023/03/27 01:16:12;;;;;;;22.50;10.97;;;;;;;8.99;61.37;93757.72;5063882;28;20706;-78
2023/03/27 01:18:50;;;;;;;23.77;11.27;;;;;;;9.10;60.50;93759.53;5053330;28;20179;-78
2023/03/27 01:21:43;;;;;;;24.57;11.03;;;;;;;9.14;60.99;93744.94;5065792;28;20614;-78
2023/03/27 01:24:32;;;;;;;24.80;12.38;;;;;;;8.84;60.73;93746.84;5069974;28;20413;-77
2023/03/27 01:27:20;;;;;;;18.37;8.60;;;;;;;8.84;60.75;93737.16;5060149;28;20255;-78
2023/03/27 01:29:58;;;;;;;25.33;12.07;;;;;;;8.72;61.82;93741.63;5042195;28;20443;-78
2023/03/27 01:32:54;;;;;;;22.47;9.93;;;;;;;8.85;61.72;93745.84;5051191;28;21139;-78
2023/03/27 01:35:34;;;;;;;16.47;8.27;;;;;;;8.89;61.00;93744.38;5052827;28;20179;-78
2023/03/27 01:38:06;;;;;;;19.70;8.88;;;;;;;8.92;60.63;93741.28;5054416;28;20502;-78
2023/03/27 01:40:43;;;;;;;18.73;8.85;;;;;;;8.65;59.85;93739.09;5053232;28;20415;-77
2023/03/27 01:43:12;;;;;;;16.17;8.33;;;;;;;8.81;59.74;93731.59;5062778;28;20186;-77
2023/03/27 01:45:48;;;;;;;15.03;7.97;;;;;;;8.80;57.47;93722.91;5062676;28;20431;-78
2023/03/27 01:49:01;;;;;;;17.47;9.00;;;;;;;8.76;58.70;93724.38;5072869;28;20859;-77
2023/03/27 01:51:53;;;;;;;15.83;8.50;;;;;;;8.80;59.15;93716.88;5062916;28;20215;-77
2023/03/27 01:54:33;;;;;;;16.38;8.98;;;;;;;8.86;58.98;93713.31;5064640;28;20425;-78
2023/03/27 01:57:03;;;;;;;12.93;8.27;;;;;;;8.87;57.56;93710.47;5066122;28;20183;-78
2023/03/27 01:59:32;;;;;;;15.17;8.10;;;;;;;8.52;58.38;93684.22;5058109;28;20640;-78
2023/03/27 02:02:22;;;;;;;18.45;9.85;;;;;;;8.71;60.18;93721.66;5073906;28;20436;-78
2023/03/27 02:04:55;;;;;;;17.33;9.10;;;;;;;8.69;61.36;93702.72;5059924;28;20178;-78
2023/03/27 02:07:29;;;;;;;16.03;8.33;;;;;;;8.68;60.76;93720.28;5072949;28;20170;-77
2023/03/27 02:09:57;;;;;;;21.38;10.70;;;;;;;8.65;61.80;93702.34;5066281;28;20935;-78
2023/03/27 02:12:26;;;;;;;17.07;9.83;;;;;;;8.74;61.30;93715.13;5053860;28;20183;-78
2023/03/27 02:15:06;;;;;;;22.97;12.23;;;;;;;8.59;61.91;93684.91;5059146;28;20655;-78
2023/03/27 02:17:37;;;;;;;22.75;12.18;;;;;;;8.62;61.73;93707.28;5062653;28;20474;-77
2023/03/27 02:20:14;;;;;;;34.72;13.85;;;;;;;8.57;61.87;93676.47;5050813;28;20433;-77
2023/03/27 02:22:41;;;;;;;17.25;8.55;;;;;;;8.62;58.63;93676.59;5052286;28;20494;-77
2023/03/27 02:25:25;;;;;;;18.23;10.02;;;;;;;8.10;61.16;93714.91;5052448;28;20453;-77
2023/03/27 02:28:12;;;;;;;22.05;9.50;;;;;;;8.29;61.58;93655.34;5052165;28;20410;-78
2023/03/27 02:30:37;;;;;;;17.57;9.80;;;;;;;8.30;59.73;93693.66;5060113;28;20440;-77
2023/03/27 02:33:26;;;;;;;15.87;8.30;;;;;;;8.15;61.09;93649.50;5051846;28;20816;-77
2023/03/27 02:35:57;;;;;;;16.77;7.70;;;;;;;8.30;60.53;93668.19;5061859;28;20183;-78
2023/03/27 02:38:47;;;;;;;16.73;8.23;;;;;;;8.39;60.21;93660.06;5061963;28;20172;-78
2023/03/27 02:41:27;;;;;;;20.47;8.37;;;;;;;8.48;59.90;93637.69;5060679;28;20187;-77
2023/03/27 02:44:17;;;;;;;22.73;9.38;;;;;;;8.53;60.00;93638.63;5072274;28;20854;-78
2023/03/27 02:46:43;;;;;;;17.73;9.03;;;;;;;8.61;59.56;93617.31;5063678;28;20178;-78
2023/03/27 02:49:15;;;;;;;12.73;5.83;;;;;;;8.63;57.58;93625.75;5057140;28;20562;-78
2023/03/27 02:51:46;;;;;;;21.58;9.85;;;;;;;8.36;60.96;93623.78;5063282;28;20496;-78
2023/03/27 02:54:16;;;;;;;19.37;9.30;;;;;;;8.38;60.59;93612.06;5056888;28;20178;-77
2023/03/27 02:56:50;;;;;;;16.07;7.60;;;;;;;8.45;60.63;93594.38;5057805;28;20174;-77
2023/03/27 02:59:26;;;;;;;15.10;7.90;;;;;;;8.39;59.30;93612.88;5056124;28;20182;-77
2023/03/27 03:01:52;;;;;;;14.93;8.13;;;;;;;8.33;60.48;93610.09;5071120;28;20468;-77
2023/03/27 03:04:29;;;;;;;16.30;7.20;;;;;;;8.22;59.72;93582.03;5064448;28;20182;-77
2023/03/27 03:06:55;;;;;;;18.03;7.70;;;;;;;8.47;60.30;93612.53;5064533;28;20639;-77
2023/03/27 03:09:23;;;;;;;20.43;9.57;;;;;;;8.44;60.73;93582.31;5071559;28;20217;-79
2023/03/27 03:11:52;;;;;;;19.07;8.13;;;;;;;8.49;60.12;93576.34;5064562;28;20178;-78
2023/03/27 03:14:22;;;;;;;16.63;9.07;;;;;;;8.44;61.32;93577.06;5062691;28;20253;-79
2023/03/27 03:16:47;;;;;;;16.73;8.60;;;;;;;8.19;61.13;93563.34;5057548;28;20410;-78
2023/03/27 03:19:13;;;;;;;18.33;9.67;;;;;;;8.17;61.13;93595.03;5064698;28;20550;-78
2023/03/27 03:21:39;;;;;;;19.40;8.13;;;;;;;8.17;61.95;93562.78;5069639;28;20214;-78
2023/03/27 03:24:06;;;;;;;15.10;9.07;;;;;;;8.23;62.56;93582.81;5065314;28;20597;-79
2023/03/27 03:26:32;;;;;;;20.77;7.53;;;;;;;8.00;62.67;93543.53;5063925;28;20262;-79
2023/03/27 03:28:57;;;;;;;15.07;7.93;;;;;;;7.94;63.04;93576.66;5064379;28;20494;-79
2023/03/27 03:31:23;;;;;;;16.20;7.60;;;;;;;7.86;64.34;93546.38;5071907;28;20456;-78
2023/03/27 03:33:48;;;;;;;15.23;7.37;;;;;;;7.92;64.12;93570.84;5065807;28;20414;-82
2023/03/27 03:36:14;;;;;;;10.70;5.97;;;;;;;8.00;63.63;93564.47;5068634;28;20453;-80
2023/03/27 03:38:40;;;;;;;11.90;6.27;;;;;;;8.04;63.72;93526.34;5067322;28;20191;-80
2023/03/27 03:41:06;;;;;;;10.97;5.80;;;;;;;8.11;62.86;93554.00;5067670;28;20536;-79
2023/03/27 03:43:32;;;;;;;16.40;8.10;;;;;;;7.82;64.85;93570.59;5064407;28;20432;-79
2023/03/27 03:45:57;;;;;;;12.63;7.93;;;;;;;7.91;64.48;93551.72;5065447;28;20655;-80
2023/03/27 03:48:23;;;;;;;23.83;8.27;;;;;;;7.87;64.54;93531.44;5067642;28;20231;-80
2023/03/27 03:50:49;;;;;;;18.03;10.13;;;;;;;8.16;63.92;93553.31;5059027;28;20433;-79
2023/03/27 03:53:16;;;;;;;22.27;10.77;;;;;;;8.18;63.45;93583.53;5066720;28;20414;-79
2023/03/27 03:55:42;;;;;;;20.75;10.30;;;;;;;8.18;63.53;93553.91;5061214;28;20430;-79
2023/03/27 03:58:08;;;;;;;29.07;13.67;;;;;;;8.26;63.26;93556.16;5059794;28;20655;-79
2023/03/27 04:00:38;;;;;;;31.40;11.47;;;;;;;8.26;63.33;93571.91;5063487;28;20301;-79
2023/03/27 04:03:06;;;;;;;19.23;10.37;;;;;;;8.32;62.98;93534.31;5064009;28;20644;-80
2023/03/27 04:05:31;;;;;;;32.83;14.20;;;;;;;8.24;62.50;93548.53;5056252;28;20179;-80
2023/03/27 04:07:58;;;;;;;28.30;16.30;;;;;;;7.81;65.37;93561.16;5060865;28;20469;-79
2023/03/27 04:10:24;;;;;;;26.73;13.60;;;;;;;7.95;65.53;93567.78;5068974;28;20283;-79
2023/03/27 04:12:50;;;;;;;28.33;15.50;;;;;;;7.91;65.60;93550.91;5063165;28;20473;-79
2023/03/27 04:15:16;;;;;;;29.47;14.80;;;;;;;8.10;64.93;93544.56;5056975;28;20179;-79
2023/03/27 04:17:42;;;;;;;30.13;15.00;;;;;;;7.96;63.89;93533.47;5061582;28;20417;-78
2023/03/27 04:20:08;;;;;;;25.30;13.23;;;;;;;8.01;64.26;93532.00;5052265;28;20184;-80
2023/03/27 04:22:45;;;;;;;25.70;13.73;;;;;;;8.26;62.79;93558.78;5051199;28;20487;-80
2023/03/27 04:25:12;;;;;;;26.90;13.55;;;;;;;8.28;62.96;93548.88;5068852;28;20424;-80
2023/03/27 04:27:38;;;;;;;36.10;15.50;;;;;;;8.27;63.29;93549.91;5060113;28;20426;-80
2023/03/27 04:30:07;;;;;;;27.42;14.88;;;;;;;8.28;63.74;93506.94;5058516;28;20958;-81
2023/03/27 04:32:33;;;;;;;23.30;12.05;;;;;;;8.49;63.41;93529.16;5058853;28;20494;-79
2023/03/27 04:34:59;;;;;;;26.87;10.17;;;;;;;8.31;61.93;93544.00;5061952;28;20917;-79
2023/03/27 04:37:25;;;;;;;18.73;8.90;;;;;;;8.64;62.58;93490.94;5061120;28;20413;-79
2023/03/27 04:39:51;;;;;;;26.07;8.37;;;;;;;8.01;61.95;93500.56;5055550;28;20417;-79
2023/03/27 04:42:16;;;;;;;15.85;7.88;;;;;;;8.16;62.46;93535.78;5060917;28;20500;-79
2023/03/27 04:44:44;;;;;;;18.20;7.73;;;;;;;8.44;62.26;93536.94;5067148;28;20198;-79
2023/03/27 04:47:10;;;;;;;16.80;6.07;;;;;;;8.95;59.54;93533.50;5066678;28;20258;-77
2023/03/27 04:49:45;;;;;;;19.03;6.33;;;;;;;9.56;56.41;93530.16;5068367;28;20297;-79
2023/03/27 04:52:13;;;;;;;17.37;7.03;;;;;;;9.41;57.53;93541.22;5066239;28;20189;-79
2023/03/27 04:54:40;;;;;;;16.63;7.17;;;;;;;9.69;57.24;93521.97;5060754;28;20167;-79
2023/03/27 04:57:06;;;;;;;16.40;6.53;;;;;;;9.78;56.89;93506.59;5052480;28;20312;-79
2023/03/27 04:59:32;;;;;;;14.30;6.70;;;;;;;10.25;57.07;93525.50;5052158;28;20653;-81
2023/03/27 05:02:00;;;;;;;16.13;6.90;;;;;;;10.57;54.70;93486.19;5062291;28;20631;-79
2023/03/27 05:04:27;;;;;;;14.03;5.77;;;;;;;11.22;51.85;93527.50;5071629;28;20158;-79
2023/03/27 05:06:53;;;;;;;16.17;6.30;;;;;;;11.77;51.06;93534.38;5063963;28;20726;-83
2023/03/27 05:09:19;;;;;;;32.80;8.63;;;;;;;12.54;50.33;93465.28;5063121;28;20228;-80
2023/03/27 05:11:48;;;;;;;20.60;10.17;;;;;;;13.17;47.13;93535.53;5067032;28;20201;-80
2023/03/27 05:14:18;;;;;;;21.00;8.37;;;;;;;13.80;46.46;93499.19;5064221;28;20209;-79
2023/03/27 05:16:44;;;;;;;20.47;8.93;;;;;;;14.24;43.20;93475.63;5072247;28;20664;-79
2023/03/27 05:19:10;;;;;;;22.70;8.77;;;;;;;14.51;41.92;93485.94;5069373;28;20175;-80
2023/03/27 05:21:37;;;;;;;19.25;8.27;;;;;;;13.67;42.01;93487.28;5060698;28;20177;-80
2023/03/27 05:24:03;;;;;;;19.80;8.23;;;;;;;13.69;42.51;93471.94;5064129;28;20183;-79
2023/03/27 05:26:29;;;;;;;18.80;8.55;;;;;;;13.79;48.28;93440.22;5063302;28;20175;-80
2023/03/27 05:28:57;;;;;;;17.15;6.80;;;;;;;13.95;41.41;93452.38;5063180;28;20315;-80
2023/03/27 05:31:23;;;;;;;14.25;7.38;;;;;;;13.56;42.43;93453.97;5063532;28;20719;-79
2023/03/27 05:33:50;;;;;;;22.73;7.82;;;;;;;13.19;43.58;93440.97;5060552;28;20194;-81
2023/03/27 05:36:16;;;;;;;22.55;7.95;;;;;;;13.00;45.14;93393.06;5067401;28;20197;-79
2023/03/27 05:38:41;;;;;;;24.17;6.93;;;;;;;13.25;44.70;93417.97;5066435;28;20175;-79
2023/03/27 05:41:08;;;;;;;19.53;7.13;;;;;;;13.11;44.13;93385.97;5066462;28;20186;-79
2023/03/27 05:43:34;;;;;;;16.87;8.40;;;;;;;13.16;42.95;93389.44;5074501;28;20201;-79
2023/03/27 05:46:00;;;;;;;20.73;7.47;;;;;;;12.95;43.62;93371.94;5066494;28;20210;-79
2023/03/27 05:48:26;;;;;;;16.70;7.87;;;;;;;13.43;42.75;93364.59;5058455;28;20171;-79
2023/03/27 05:50:52;;;;;;;11.73;7.10;;;;;;;14.41;38.86;93341.16;5066204;28;20268;-79
2023/03/27 05:53:18;;;;;;;17.60;8.27;;;;;;;14.52;38.73;93336.59;5066102;28;20646;-79
2023/03/27 05:55:44;;;;;;;16.02;7.85;;;;;;;14.29;38.27;93340.63;5066263;28;20224;-79
2023/03/27 05:58:10;;;;;;;17.92;8.43;;;;;;;13.87;39.14;93341.00;5063696;28;20190;-79
2023/03/27 06:00:37;;;;;;;15.77;7.13;;;;;;;13.65;39.51;93330.75;5065462;28;20211;-79
2023/03/27 06:03:03;;;;;;;12.57;6.93;;;;;;;13.30;39.94;93301.72;5060144;28;20175;-79
2023/03/27 06:05:30;;;;;;;13.73;6.33;;;;;;;13.18;40.87;93286.91;5062543;28;20197;-79
2023/03/27 06:07:57;;;;;;;12.03;6.37;;;;;;;12.81;41.67;93276.56;5062591;28;20171;-79
2023/03/27 06:10:27;;;;;;;11.47;4.90;;;;;;;12.59;42.15;93289.22;5063087;28;20285;-79
2023/03/27 06:13:07;;;;;;;9.70;4.90;;;;;;;12.40;43.27;93257.25;5062622;28;20309;-79
2023/03/27 06:15:36;;;;;;;15.17;8.27;;;;;;;12.71;44.15;93276.56;5068554;28;20155;-79
2023/03/27 06:18:02;;;;;;;15.73;8.27;;;;;;;13.07;45.29;93306.44;5062579;28;20182;-79
2023/03/27 06:20:28;;;;;;;24.47;8.90;;;;;;;13.15;43.95;93266.31;5070127;28;20174;-79
2023/03/27 06:22:58;;;;;;;25.90;9.37;;;;;;;13.58;42.31;93286.06;5062037;28;20208;-79
2023/03/27 06:25:25;;;;;;;31.80;10.23;;;;;;;13.36;42.52;93242.50;5068714;28;20228;-79
2023/03/27 06:27:51;;;;;;;22.67;9.57;;;;;;;13.55;42.17;93296.41;5064382;28;20221;-79
2023/03/27 06:30:21;;;;;;;19.63;8.43;;;;;;;13.39;43.05;93263.13;5062476;28;20210;-79
2023/03/27 06:32:50;;;;;;;20.47;10.33;;;;;;;13.40;43.47;93310.44;5062489;28;20726;-79
2023/03/27 06:35:17;;;;;;;23.73;10.93;;;;;;;13.44;44.44;93269.19;5058091;28;20580;-79
2023/03/27 06:37:47;;;;;;;20.17;9.37;;;;;;;13.40;43.73;93280.56;5058296;28;20187;-79
2023/03/27 06:40:23;;;;;;;16.53;7.47;;;;;;;13.28;43.85;93287.97;5064879;28;20173;-79
2023/03/27 06:42:59;;;;;;;16.37;7.07;;;;;;;13.11;44.18;93307.50;5066623;28;20564;-78
2023/03/27 06:45:37;;;;;;;16.07;6.73;;;;;;;13.19;45.91;93285.88;5065707;28;20274;-78
2023/03/27 06:48:04;;;;;;;14.93;5.37;;;;;;;13.40;44.46;93285.84;5062168;28;20631;-77
2023/03/27 06:50:31;;;;;;;4.83;3.33;;;;;;;13.46;43.51;93311.22;5061724;28;20278;-77
2023/03/27 06:52:57;;;;;;;6.93;3.23;;;;;;;13.52;43.99;93318.06;5061767;28;20171;-78
2023/03/27 06:55:26;;;;;;;7.90;4.03;;;;;;;13.60;43.99;93322.81;5061788;28;20182;-78
2023/03/27 06:57:54;;;;;;;13.18;3.55;;;;;;;13.53;44.84;93301.16;5062000;28;20675;-79
2023/03/27 07:00:23;;;;;;;9.50;3.88;;;;;;;14.03;43.64;93308.16;5070266;28;20173;-79
2023/03/27 07:03:00;;;;;;;13.33;4.83;;;;;;;14.59;44.46;93315.91;5061679;28;20286;-79
2023/03/27 07:05:27;;;;;;;8.77;3.27;;;;;;;15.16;42.64;93312.59;5071948;28;20185;-79
2023/03/27 07:07:54;;;;;;;6.90;2.65;;;;;;;15.57;38.87;93310.44;5064843;28;20596;-78
2023/03/27 07:10:21;;;;;;;5.00;2.15;;;;;;;15.70;38.32;93283.25;5064595;28;20204;-79
2023/03/27 07:12:53;;;;;;;6.85;2.42;;;;;;;16.15;40.95;93313.03;5061555;28;20258;-79
2023/03/27 07:15:19;;;;;;;8.95;2.78;;;;;;;16.87;40.86;93297.78;5061766;28;20606;-79
2023/03/27 07:17:59;;;;;;;3.35;2.38;;;;;;;17.60;36.49;93313.16;5062375;28;20233;-79
2023/03/27 07:20:26;;;;;;;5.28;2.47;;;;;;;18.21;34.66;93277.47;5063997;28;20214;-79
2023/03/27 07:22:56;;;;;;;5.72;2.00;;;;;;;18.82;33.33;93314.34;5061305;28;20179;-79
2023/03/27 07:25:23;;;;;;;2.80;2.50;;;;;;;18.54;33.77;93265.59;5052779;28;20555;-80
2023/03/27 07:27:49;;;;;;;2.33;2.03;;;;;;;18.59;33.38;93297.50;5052734;28;20251;-79
2023/03/27 07:30:14;;;;;;;6.03;2.17;;;;;;;18.31;33.94;93303.91;5060886;28;20305;-80
2023/03/27 07:32:41;;;;;;;6.45;2.33;;;;;;;18.00;33.90;93287.69;5061031;28;20178;-80
2023/03/27 07:35:08;;;;;;;3.05;2.60;;;;;;;17.75;34.21;93301.47;5061192;28;20183;-80
2023/03/27 07:37:36;;;;;;;3.42;2.28;;;;;;;17.33;35.11;93316.50;5061069;28;20179;-79
2023/03/27 07:40:05;;;;;;;4.38;2.65;;;;;;;17.18;36.74;93301.59;5063721;28;20189;-79
2023/03/27 07:42:32;;;;;;;3.60;2.33;;;;;;;17.13;36.97;93271.63;5064015;28;20181;-79
2023/03/27 07:44:58;;;;;;;2.22;1.88;;;;;;;16.71;36.68;93294.56;5064242;28;20218;-78
2023/03/27 07:47:24;;;;;;;3.97;2.30;;;;;;;16.46;37.23;93276.28;5064299;28;20201;-79
2023/03/27 07:49:49;;;;;;;2.42;2.08;;;;;;;16.15;38.00;93274.00;5063814;28;20202;-80
2023/03/27 07:52:15;;;;;;;3.25;1.85;;;;;;;15.72;39.21;93302.34;5064200;28;20257;-80
2023/03/27 07:54:41;;;;;;;3.60;2.10;;;;;;;15.47;39.94;93299.91;5065619;28;20179;-79
2023/03/27 07:57:09;;;;;;;8.18;2.05;;;;;;;15.33;41.00;93273.22;5065476;28;20702;-80
2023/03/27 07:59:35;;;;;;;5.78;2.58;;;;;;;15.39;40.82;93295.22;5060886;28;20183;-79
2023/03/27 08:02:00;;;;;;;17.00;3.25;;;;;;;15.33;41.94;93272.44;5060192;28;20242;-79
2023/03/27 08:04:26;;;;;;;3.60;2.33;;;;;;;15.31;43.17;93230.28;5060729;28;20254;-80
2023/03/27 08:06:53;;;;;;;2.67;2.38;;;;;;;15.56;41.77;93228.50;5060352;28;20216;-80
2023/03/27 08:09:19;;;;;;;7.47;2.80;;;;;;;15.88;41.87;93265.84;5062398;28;20225;-80
2023/03/27 08:11:45;;;;;;;7.30;2.53;;;;;;;16.10;39.87;93266.09;5064352;28;20343;-80
2023/03/27 08:14:11;;;;;;;7.90;2.97;;;;;;;16.14;41.47;93272.44;5061787;28;20936;-79
2023/03/27 08:16:37;;;;;;;5.22;2.80;;;;;;;16.29;40.00;93270.66;5063466;28;20284;-77
2023/03/27 08:19:03;;;;;;;4.72;2.60;;;;;;;16.26;42.94;93210.94;5071192;28;20186;-77
2023/03/27 08:21:33;;;;;;;5.32;2.70;;;;;;;16.65;40.95;93242.56;5065754;28;20171;-77
2023/03/27 08:24:03;;;;;;;6.53;2.50;;;;;;;16.58;40.89;93234.16;5057168;28;20175;-82
2023/03/27 08:26:29;;;;;;;5.38;2.50;;;;;;;16.35;40.64;93222.50;5063383;28;20170;-80
2023/03/27 08:28:55;;;;;;;3.90;2.40;;;;;;;16.26;40.99;93226.09;5054939;28;20187;-80
2023/03/27 08:31:21;;;;;;;4.53;2.63;;;;;;;15.69;41.54;93194.13;5063516;28;21088;-80
2023/03/27 08:33:47;;;;;;;7.35;2.92;;;;;;;15.82;43.21;93238.56;5063520;28;20182;-79
2023/03/27 08:36:15;;;;;;;6.95;2.20;;;;;;;15.79;43.30;93238.34;5061840;28;20703;-78
2023/03/27 08:38:42;;;;;;;3.58;2.50;;;;;;;15.63;42.42;93218.34;5065527;28;20170;-79
2023/03/27 08:41:23;;;;;;;3.22;2.35;;;;;;;15.40;43.03;93235.78;5059121;28;20182;-80
2023/03/27 08:43:49;;;;;;;4.10;2.35;;;;;;;15.28;45.35;93222.91;5063611;28;20562;-79
2023/03/27 08:46:20;;;;;;;2.75;2.38;;;;;;;15.46;44.03;93259.34;5068312;28;20178;-78
2023/03/27 08:49:07;;;;;;;2.83;2.50;;;;;;;15.14;45.04;93248.47;5063725;28;20185;-79
2023/03/27 08:51:40;;;;;;;5.63;3.00;;;;;;;15.26;45.88;93274.63;5064099;28;20193;-80
2023/03/27 08:54:34;;;;;;;5.00;2.70;;;;;;;15.26;45.17;93233.00;5063841;28;20914;-77
2023/03/27 08:57:00;;;;;;;6.55;2.10;;;;;;;15.04;44.42;93171.72;5055942;28;20182;-80
2023/03/27 08:59:30;;;;;;;8.05;2.05;;;;;;;15.44;43.63;93181.91;5066540;28;20176;-79
2023/03/27 09:02:28;;;;;;;8.43;2.33;;;;;;;15.72;45.91;93168.91;5065900;28;20218;-80
2023/03/27 09:05:06;;;;;;;16.85;2.65;;;;;;;16.04;45.43;93178.84;5043580;28;20195;-80
2023/03/27 09:07:52;;;;;;;3.47;2.13;;;;;;;16.35;45.42;93168.59;5067331;28;20258;-80
2023/03/27 09:10:42;;;;;;;22.23;3.15;;;;;;;16.64;42.35;93177.22;5071814;28;20221;-80
2023/03/27 09:13:14;;;;;;;2.60;1.80;;;;;;;16.83;41.27;93178.00;5064277;28;20294;-80
2023/03/27 09:16:09;;;;;;;9.80;2.72;;;;;;;16.96;39.32;93157.84;5065870;28;20584;-80
2023/03/27 09:18:39;;;;;;;10.73;2.70;;;;;;;17.13;40.77;93152.75;5063145;28;20181;-80
2023/03/27 09:21:13;;;;;;;6.30;2.55;;;;;;;17.15;39.03;93166.53;5063506;28;20222;-79
2023/03/27 09:23:45;;;;;;;13.10;2.22;;;;;;;17.12;38.19;93177.00;5064165;28;20264;-77
2023/03/27 09:26:19;;;;;;;8.82;2.55;;;;;;;16.70;38.78;93207.94;5066553;28;20623;-79
2023/03/27 09:28:50;;;;;;;29.98;3.45;;;;;;;16.14;41.04;93221.19;5065097;28;20166;-79
2023/03/27 09:31:22;;;;;;;14.27;2.10;;;;;;;15.57;43.69;93190.31;5067851;28;20174;-79
2023/03/27 09:33:47;;;;;;;7.28;2.05;;;;;;;15.30;44.80;93165.13;5064099;28;20243;-82
2023/03/27 09:36:13;;;;;;;6.40;1.70;;;;;;;15.52;46.20;93182.38;5067197;28;20560;-77
2023/03/27 09:38:43;;;;;;;6.85;2.35;;;;;;;15.38;45.07;93195.53;5061399;28;20190;-80
2023/03/27 09:41:14;;;;;;;6.95;2.42;;;;;;;15.30;46.24;93194.28;5073545;28;20189;-79
2023/03/27 09:44:02;;;;;;;18.13;16.73;;;;;;;15.16;48.04;93188.03;5066012;28;20675;-77
2023/03/27 09:46:27;;;;;;;3.30;2.50;;;;;;;15.14;46.46;93179.56;5067664;28;20536;-77
2023/03/27 09:49:06;;;;;;;4.13;2.63;;;;;;;15.11;47.76;93177.50;5066275;28;20236;-77
2023/03/27 09:51:44;;;;;;;9.38;3.15;;;;;;;15.16;47.32;93166.03;5055716;28;20171;-78
2023/03/27 09:54:13;;;;;;;2.63;1.77;;;;;;;15.14;47.80;93176.13;5065094;28;20232;-79
2023/03/27 09:56:47;;;;;;;7.72;3.40;;;;;;;15.16;48.27;93176.63;5062992;28;20171;-79
2023/03/27 09:59:27;;;;;;;4.28;3.20;;;;;;;15.15;47.41;93178.50;5060796;28;20235;-78
2023/03/27 10:01:56;;;;;;;7.07;3.38;;;;;;;15.13;48.83;93161.31;5068323;28;20684;-78
2023/03/27 10:04:23;;;;;;;3.17;2.20;;;;;;;15.29;47.42;93182.09;5069607;28;20178;-78
2023/03/27 10:07:09;;;;;;;4.38;2.60;;;;;;;15.37;48.58;93186.78;5069420;28;20201;-78
2023/03/27 10:09:37;;;;;;;3.05;2.47;;;;;;;15.35;46.67;93194.22;5071691;28;20193;-78
2023/03/27 10:12:06;;;;;;;7.07;2.45;;;;;;;15.30;47.51;93204.09;5064347;28;20171;-78
2023/03/27 10:14:34;;;;;;;4.72;2.70;;;;;;;15.33;47.83;93204.31;5068024;28;20261;-77
2023/03/27 10:17:01;;;;;;;3.20;2.40;;;;;;;15.14;48.92;93216.66;5061972;28;20183;-78
2023/03/27 10:19:37;;;;;;;6.15;2.40;;;;;;;15.05;51.21;93202.44;5068380;28;20213;-78
2023/03/27 10:22:16;;;;;;;4.25;2.55;;;;;;;15.03;51.05;93191.34;5066871;28;20167;-80
2023/03/27 10:24:46;;;;;;;234.40;220.25;;;;;;;15.05;54.24;93194.50;5062886;28;20158;-79
2023/03/27 10:27:19;;;;;;;105.65;16.30;;;;;;;14.99;50.67;93169.13;5059771;28;20199;-78
2023/03/27 10:29:44;;;;;;;5.28;2.30;;;;;;;14.84;51.90;93185.16;5063779;28;20215;-79
2023/03/27 10:32:10;;;;;;;3.15;2.20;;;;;;;14.77;51.42;93190.78;5059719;28;20670;-79
2023/03/27 10:34:52;;;;;;;6.28;2.42;;;;;;;14.79;52.32;93188.63;5068363;28;20678;-79
2023/03/27 10:37:32;;;;;;;6.10;3.05;;;;;;;14.92;54.43;93188.00;5063880;28;20177;-79
2023/03/27 10:40:06;;;;;;;6.15;3.10;;;;;;;14.87;54.68;93135.06;5063193;28;20224;-79
2023/03/27 10:42:32;;;;;;;6.72;3.22;;;;;;;15.15;55.13;93157.28;5071580;28;20192;-79
2023/03/27 10:44:58;;;;;;;14.88;4.65;;;;;;;15.43;54.34;93161.78;5065142;28;20611;-79
2023/03/27 10:47:29;;;;;;;6.88;3.25;;;;;;;15.64;53.78;93150.97;5055567;28;20171;-79
2023/03/27 10:50:03;;;;;;;8.70;3.75;;;;;;;15.80;52.57;93145.19;5060154;28;20186;-78
2023/03/27 10:52:49;;;;;;;7.53;3.80;;;;;;;15.90;51.23;93135.53;5057175;28;20174;-79
2023/03/27 10:55:47;;;;;;;7.63;4.20;;;;;;;15.96;51.32;93121.91;5065132;28;20218;-79
2023/03/27 10:58:21;;;;;;;10.20;4.43;;;;;;;15.98;51.91;93111.00;5064920;28;20185;-79
2023/03/27 11:00:55;;;;;;;4.97;2.55;;;;;;;16.04;50.64;93118.59;5054579;28;20210;-80
2023/03/27 11:03:38;;;;;;;3.78;2.22;;;;;;;16.03;52.32;93105.59;5053116;28;20194;-79
2023/03/27 11:06:10;;;;;;;3.80;2.50;;;;;;;16.23;53.11;93135.31;5063816;28;20588;-78
2023/03/27 11:09:04;;;;;;;3.55;2.80;;;;;;;16.25;53.30;93132.38;5055972;28;20171;-78
2023/03/27 11:11:44;;;;;;;5.20;2.63;;;;;;;16.11;52.94;93119.03;5061586;28;20405;-78
2023/03/27 11:14:19;;;;;;;3.35;2.08;;;;;;;16.08;53.89;93140.84;5057922;28;20735;-78
2023/03/27 11:16:51;;;;;;;6.00;2.03;;;;;;;15.94;54.29;93128.56;5059347;28;20192;-78
2023/03/27 11:19:27;;;;;;;3.67;2.28;;;;;;;16.01;54.09;93145.69;5056156;28;20167;-78
2023/03/27 11:21:56;;;;;;;3.00;1.65;;;;;;;15.96;54.80;93161.69;5070367;28;20177;-78
2023/03/27 11:24:42;;;;;;;4.93;2.53;;;;;;;15.77;55.10;93198.03;5070027;28;20170;-78
2023/03/27 11:27:36;;;;;;;5.57;2.97;;;;;;;15.49;56.62;93218.19;5059137;28;20407;-79
2023/03/27 11:30:30;;;;;;;4.93;3.13;;;;;;;15.15;57.03;93212.16;5047857;28;20449;-78
2023/03/27 11:32:58;;;;;;;5.83;3.37;;;;;;;15.04;57.73;93227.38;5051032;28;20490;-78
2023/03/27 11:35:32;;;;;;;5.60;2.63;;;;;;;14.49;58.59;93172.97;5060668;28;21248;-78
2023/03/27 11:38:30;;;;;;;4.03;2.10;;;;;;;14.53;59.70;93197.84;5051922;28;20419;-78
2023/03/27 11:40:56;;;;;;;3.92;2.15;;;;;;;14.48;59.73;93229.63;5057233;28;20426;-78
2023/03/27 11:43:22;;;;;;;6.38;2.80;;;;;;;14.18;58.87;93233.25;5061697;28;20410;-78
2023/03/27 11:45:55;;;;;;;5.03;2.97;;;;;;;14.03;60.76;93254.44;5054936;28;20422;-78
2023/03/27 11:48:51;;;;;;;6.97;4.82;;;;;;;14.08;63.17;93259.75;5051487;28;20413;-80